createdAt,value
2023-10-13T00:02:10.221Z,100919.63
2023-10-13T00:04:38.794Z,100911.47
2023-10-13T00:07:10.879Z,100901.03
2023-10-13T00:09:39.824Z,100902.00
2023-10-13T00:12:11.644Z,100899.19
2023-10-13T00:14:40.726Z,100896.72
2023-10-13T00:17:09.690Z,100901.13
2023-10-13T00:19:39.769Z,100892.41
2023-10-13T00:22:11.259Z,100891.00
2023-10-13T00:24:44.384Z,100897.28
2023-10-13T00:27:31.765Z,100893.94
2023-10-13T00:30:17.225Z,100896.03
2023-10-13T00:32:57.320Z,100895.84
2023-10-13T00:35:37.186Z,100885.09
2023-10-13T00:38:14.166Z,100880.88
2023-10-13T00:40:54.282Z,100882.69
2023-10-13T00:43:24.134Z,100881.72
2023-10-13T00:46:09.650Z,100883.78
2023-10-13T00:49:05.764Z,100883.88
2023-10-13T00:51:36.434Z,100881.84
2023-10-13T00:54:15.053Z,100874.75
2023-10-13T00:57:10.264Z,100877.50
2023-10-13T00:59:39.563Z,100873.97
2023-10-13T01:02:26.337Z,100888.06
2023-10-13T01:04:56.127Z,100878.97
2023-10-13T01:07:25.996Z,100875.44
2023-10-13T01:09:53.693Z,100878.78
2023-10-13T01:12:23.802Z,100881.47
2023-10-13T01:14:52.277Z,100871.03
2023-10-13T01:17:20.439Z,100871.25
2023-10-13T01:19:50.717Z,100870.16
2023-10-13T01:22:19.013Z,100873.72
2023-10-13T01:24:47.241Z,100880.06
2023-10-13T01:27:26.833Z,100868.56
2023-10-13T01:30:00.494Z,100865.22
2023-10-13T01:32:30.882Z,100862.22
2023-10-13T01:35:28.994Z,100869.31
2023-10-13T01:37:56.625Z,100859.22
2023-10-13T01:40:35.269Z,100852.13
2023-10-13T01:43:05.993Z,100860.19
2023-10-13T01:45:33.981Z,100865.25
2023-10-13T01:48:03.037Z,100855.47
2023-10-13T01:50:31.712Z,100854.81
2023-10-13T01:53:15.404Z,100848.34
2023-10-13T01:55:46.218Z,100851.28
2023-10-13T01:58:19.696Z,100861.72
2023-10-13T02:00:49.409Z,100858.25
2023-10-13T02:03:18.813Z,100861.38
2023-10-13T02:05:55.846Z,100867.94
2023-10-13T02:08:27.665Z,100870.44
2023-10-13T02:10:59.037Z,100865.47
2023-10-13T02:13:27.929Z,100862.56
2023-10-13T02:16:05.308Z,100860.63
2023-10-13T02:18:42.979Z,100860.31
2023-10-13T02:21:14.619Z,100861.69
2023-10-13T02:23:47.130Z,100876.34
2023-10-13T02:26:32.074Z,100879.34
2023-10-13T02:29:06.140Z,100863.09
2023-10-13T02:31:37.418Z,100859.66
2023-10-13T02:34:09.542Z,100866.00
2023-10-13T02:36:38.194Z,100850.59
2023-10-13T02:39:09.977Z,100851.59
2023-10-13T02:41:41.439Z,100858.69
2023-10-13T02:44:21.192Z,100864.50
2023-10-13T02:46:51.959Z,100857.50
2023-10-13T02:49:47.792Z,100846.88
2023-10-13T02:52:49.577Z,100844.59
2023-10-13T02:55:26.844Z,100851.06
2023-10-13T02:57:57.664Z,100852.66
2023-10-13T03:00:32.786Z,100850.94
2023-10-13T03:03:00.832Z,100847.06
2023-10-13T03:05:31.414Z,100850.72
2023-10-13T03:08:00.288Z,100848.97
2023-10-13T03:10:31.217Z,100853.19
2023-10-13T03:12:59.770Z,100845.09
2023-10-13T03:15:49.386Z,100833.94
2023-10-13T03:18:20.257Z,100838.13
2023-10-13T03:20:53.078Z,100839.94
2023-10-13T03:23:21.275Z,100823.91
2023-10-13T03:25:56.968Z,100826.59
2023-10-13T03:28:30.559Z,100835.31
2023-10-13T03:31:03.028Z,100837.88
2023-10-13T03:33:34.494Z,100838.75
2023-10-13T03:36:07.446Z,100845.63
2023-10-13T03:38:38.182Z,100842.81
2023-10-13T03:41:13.479Z,100842.63
2023-10-13T03:43:54.212Z,100849.84
2023-10-13T03:46:23.761Z,100829.03
2023-10-13T03:49:03.363Z,100831.72
2023-10-13T03:51:35.249Z,100821.81
2023-10-13T03:54:09.348Z,100824.63
2023-10-13T03:56:41.389Z,100830.34
2023-10-13T03:59:11.584Z,100825.47
2023-10-13T04:01:47.462Z,100837.97
2023-10-13T04:04:37.516Z,100830.66
2023-10-13T04:07:09.158Z,100848.81
2023-10-13T04:09:38.341Z,100852.78
2023-10-13T04:12:15.335Z,100851.34
2023-10-13T04:15:05.258Z,100855.97
2023-10-13T04:17:42.313Z,100845.75
2023-10-13T04:20:12.201Z,100842.91
2023-10-13T04:22:48.586Z,100854.47
2023-10-13T04:25:45.049Z,100859.78
2023-10-13T04:28:16.527Z,100873.31
2023-10-13T04:30:59.362Z,100872.38
2023-10-13T04:33:46.317Z,100868.97
2023-10-13T04:36:18.103Z,100870.31
2023-10-13T04:39:01.942Z,100874.91
2023-10-13T04:41:46.705Z,100877.84
2023-10-13T04:44:32.102Z,100875.16
2023-10-13T04:47:01.611Z,100866.59
2023-10-13T04:49:51.505Z,100873.94
2023-10-13T04:52:39.007Z,100871.00
2023-10-13T04:55:40.116Z,100881.44
2023-10-13T04:58:37.168Z,100881.31
2023-10-13T05:01:24.235Z,100881.44
2023-10-13T05:03:55.650Z,100899.63
2023-10-13T05:06:44.259Z,100892.50
2023-10-13T05:09:31.855Z,100893.97
2023-10-13T05:12:18.478Z,100896.44
2023-10-13T05:15:04.984Z,100902.06
2023-10-13T05:17:51.751Z,100901.84
2023-10-13T05:20:37.741Z,100905.38
2023-10-13T05:23:23.964Z,100890.25
2023-10-13T05:26:10.432Z,100896.38
2023-10-13T05:28:57.283Z,100903.88
2023-10-13T05:31:44.429Z,100898.31
2023-10-13T05:34:30.958Z,100890.97
2023-10-13T05:37:18.467Z,100898.22
2023-10-13T05:40:04.917Z,100898.66
2023-10-13T05:42:51.894Z,100892.19
2023-10-13T05:45:20.098Z,100890.53
2023-10-13T05:47:49.116Z,100890.25
2023-10-13T05:50:23.313Z,100894.69
2023-10-13T05:52:58.332Z,100893.50
2023-10-13T05:55:45.985Z,100899.66
2023-10-13T05:58:33.534Z,100899.47
2023-10-13T06:01:20.660Z,100895.59
2023-10-13T06:04:07.526Z,100902.31
2023-10-13T06:06:56.943Z,100903.78
2023-10-13T06:09:44.846Z,100900.50
2023-10-13T06:12:31.006Z,100913.97
2023-10-13T06:15:17.912Z,100905.16
2023-10-13T06:18:04.734Z,100919.34
2023-10-13T06:20:52.397Z,100920.19
2023-10-13T06:23:39.247Z,100918.50
2023-10-13T06:26:25.842Z,100924.38
2023-10-13T06:28:54.199Z,100925.53
2023-10-13T06:31:27.582Z,100928.97
2023-10-13T06:33:57.332Z,100936.13
2023-10-13T06:36:25.549Z,100936.72
2023-10-13T06:38:57.149Z,100937.00
2023-10-13T06:41:42.971Z,100943.53
2023-10-13T06:44:16.910Z,100940.13
2023-10-13T06:46:45.727Z,100938.38
2023-10-13T06:49:15.620Z,100941.22
2023-10-13T06:51:43.779Z,100944.81
2023-10-13T06:54:21.685Z,100938.34
2023-10-13T06:56:54.237Z,100929.59
2023-10-13T06:59:28.314Z,100936.03
2023-10-13T07:02:09.259Z,100951.84
2023-10-13T07:05:13.299Z,100951.00
2023-10-13T07:07:42.450Z,100957.56
2023-10-13T07:10:13.199Z,100960.28
2023-10-13T07:12:44.710Z,100964.31
2023-10-13T07:15:20.957Z,100954.53
2023-10-13T07:17:49.581Z,100948.06
2023-10-13T07:20:26.582Z,100944.25
2023-10-13T07:23:07.702Z,100946.44
2023-10-13T07:25:39.025Z,100946.75
2023-10-13T07:28:11.835Z,100957.91
2023-10-13T07:31:05.083Z,100949.47
2023-10-13T07:33:33.802Z,100942.16
2023-10-13T07:36:02.912Z,100948.78
2023-10-13T07:38:39.357Z,100937.56
2023-10-13T07:41:10.199Z,100923.63
2023-10-13T07:43:41.193Z,100943.22
2023-10-13T07:46:11.135Z,100946.50
2023-10-13T07:48:39.676Z,100948.47
2023-10-13T07:51:15.201Z,100951.41
2023-10-13T07:53:50.254Z,100951.81
2023-10-13T07:56:20.614Z,100958.00
2023-10-13T07:58:54.616Z,100957.09
2023-10-13T08:01:23.159Z,100947.78
2023-10-13T08:04:06.281Z,100954.44
2023-10-13T08:06:35.812Z,100954.19
2023-10-13T08:09:10.691Z,100958.13
2023-10-13T08:11:38.945Z,100949.84
2023-10-13T08:16:56.810Z,100951.94
2023-10-13T08:19:33.773Z,100948.06
2023-10-13T08:22:25.149Z,100946.25
2023-10-13T08:24:54.320Z,100955.09
2023-10-13T08:27:41.304Z,100955.66
2023-10-13T08:30:30.204Z,100952.13
2023-10-13T08:33:00.724Z,100944.31
2023-10-13T08:35:35.804Z,100941.41
2023-10-13T08:38:26.957Z,100943.47
2023-10-13T08:41:01.532Z,100948.25
2023-10-13T08:43:45.331Z,100961.75
2023-10-13T08:46:36.238Z,100963.97
2023-10-13T08:49:19.986Z,100957.53
2023-10-13T08:51:52.849Z,100971.19
2023-10-13T08:54:36.099Z,100966.56
2023-10-13T08:57:22.973Z,100969.91
2023-10-13T09:00:16.960Z,100963.19
2023-10-13T09:03:03.775Z,100949.81
2023-10-13T09:05:43.485Z,100948.31
2023-10-13T09:08:17.549Z,100938.81
2023-10-13T09:11:07.251Z,100925.09
2023-10-13T09:13:47.505Z,100910.81
2023-10-13T09:16:39.333Z,100915.50
2023-10-13T09:19:07.404Z,100904.41
2023-10-13T09:21:42.596Z,100896.22
2023-10-13T09:24:24.501Z,100903.38
2023-10-13T09:26:57.832Z,100908.00
2023-10-13T09:29:26.422Z,100895.19
2023-10-13T09:32:04.205Z,100906.66
2023-10-13T09:34:42.129Z,100894.22
2023-10-13T09:37:15.581Z,100900.88
2023-10-13T09:39:54.054Z,100910.59
2023-10-13T09:42:25.251Z,100914.00
2023-10-13T09:44:57.074Z,100924.75
2023-10-13T09:47:32.523Z,100922.22
2023-10-13T09:50:16.847Z,100919.66
2023-10-13T09:52:47.331Z,100914.53
2023-10-13T09:55:21.565Z,100906.84
2023-10-13T09:58:11.100Z,100918.25
2023-10-13T10:00:49.957Z,100905.47
2023-10-13T10:03:36.244Z,100911.94
2023-10-13T10:06:05.121Z,100916.75
2023-10-13T10:08:35.318Z,100919.09
2023-10-13T10:11:29.366Z,100924.00
2023-10-13T10:14:15.737Z,100906.84
2023-10-13T10:17:09.768Z,100924.31
2023-10-13T10:19:58.500Z,100908.06
2023-10-13T10:22:39.937Z,100901.19
2023-10-13T10:25:09.153Z,100910.09
2023-10-13T10:27:37.320Z,100917.50
2023-10-13T10:30:05.939Z,100920.19
2023-10-13T10:32:38.331Z,100911.88
2023-10-13T10:35:16.647Z,100914.44
2023-10-13T10:37:48.505Z,100915.81
2023-10-13T10:40:48.347Z,100921.25
2023-10-13T10:43:32.444Z,100932.28
2023-10-13T10:46:02.018Z,100932.00
2023-10-13T10:48:35.690Z,100925.75
2023-10-13T10:51:16.023Z,100922.63
2023-10-13T10:53:47.992Z,100921.41
2023-10-13T10:56:42.988Z,100923.44
2023-10-13T10:59:20.335Z,100926.38
2023-10-13T11:01:49.121Z,100919.25
2023-10-13T11:04:21.044Z,100922.88
2023-10-13T11:06:56.358Z,100928.47
2023-10-13T11:09:47.538Z,100927.59
2023-10-13T11:12:16.792Z,100927.94
2023-10-13T11:14:48.588Z,100932.56
2023-10-13T11:17:28.218Z,100939.25
2023-10-13T11:19:57.413Z,100952.41
2023-10-13T11:22:33.998Z,100955.06
2023-10-13T11:25:14.450Z,100952.84
2023-10-13T11:27:52.472Z,100947.94
2023-10-13T11:30:22.150Z,100948.75
2023-10-13T11:33:07.611Z,100951.66
2023-10-13T11:35:55.974Z,100951.53
2023-10-13T11:38:29.115Z,100958.09
2023-10-13T11:41:06.332Z,100958.44
2023-10-13T11:43:57.780Z,100961.53
2023-10-13T11:46:39.747Z,100969.06
2023-10-13T11:49:14.705Z,100966.88
2023-10-13T11:51:46.867Z,100969.63
2023-10-13T11:54:16.803Z,100974.75
2023-10-13T11:56:48.154Z,100975.75
2023-10-13T11:59:19.862Z,100976.97
2023-10-13T12:02:10.655Z,100978.84
2023-10-13T12:04:45.408Z,100979.47
2023-10-13T12:07:19.414Z,100972.09
2023-10-13T12:09:58.103Z,100975.63
2023-10-13T12:12:28.080Z,100974.88
2023-10-13T12:14:57.434Z,100977.44
2023-10-13T12:17:29.651Z,100982.34
2023-10-13T12:19:58.723Z,100974.69
2023-10-13T12:22:30.152Z,100975.06
2023-10-13T12:24:58.433Z,100969.13
2023-10-13T12:27:36.495Z,100980.69
2023-10-13T12:30:09.683Z,100972.03
2023-10-13T12:32:38.333Z,100968.41
2023-10-13T12:35:06.838Z,100968.81
2023-10-13T12:37:37.851Z,100967.47
2023-10-13T12:40:36.256Z,100972.28
2023-10-13T12:43:26.806Z,100970.09
2023-10-13T12:46:17.521Z,100966.00
2023-10-13T12:49:00.538Z,100968.56
2023-10-13T12:51:34.570Z,100978.81
2023-10-13T12:54:07.172Z,100986.78
2023-10-13T12:56:36.033Z,100984.47
2023-10-13T12:59:12.986Z,100991.91
2023-10-13T13:01:45.051Z,100981.56
2023-10-13T13:04:20.141Z,100973.03
2023-10-13T13:06:49.823Z,100975.44
2023-10-13T13:09:27.423Z,100982.28
2023-10-13T13:12:00.048Z,100985.63
2023-10-13T13:14:30.987Z,100985.50
2023-10-13T13:17:06.390Z,100976.84
2023-10-13T13:19:43.254Z,100984.00
2023-10-13T13:22:14.596Z,100983.44
2023-10-13T13:24:46.334Z,100981.69
2023-10-13T13:27:21.287Z,100984.53
2023-10-13T13:29:49.437Z,100979.69
2023-10-13T13:32:26.592Z,100983.56
2023-10-13T13:35:07.661Z,100993.13
2023-10-13T13:37:36.403Z,100986.19
2023-10-13T13:40:23.796Z,100998.63
2023-10-13T13:42:51.976Z,100999.22
2023-10-13T13:45:28.867Z,100997.34
2023-10-13T13:47:57.389Z,101006.25
2023-10-13T13:50:31.009Z,101005.84
2023-10-13T13:52:59.569Z,101001.03
2023-10-13T13:55:32.848Z,101002.56
2023-10-13T13:58:01.018Z,100996.28
2023-10-13T14:00:49.950Z,101003.75
2023-10-13T14:03:38.234Z,101000.75
2023-10-13T14:06:07.937Z,101011.41
2023-10-13T14:08:36.250Z,101016.69
2023-10-13T14:11:14.423Z,101018.13
2023-10-13T14:13:52.602Z,101011.69
2023-10-13T14:16:25.896Z,101003.00
2023-10-13T14:18:54.892Z,101018.75
2023-10-13T14:21:25.967Z,101012.47
2023-10-13T14:23:57.443Z,101015.31
2023-10-13T14:26:27.194Z,101029.91
2023-10-13T14:29:09.716Z,101035.34
2023-10-13T14:31:43.837Z,101040.38
2023-10-13T14:34:12.567Z,101037.94
2023-10-13T14:36:40.560Z,101029.09
2023-10-13T14:39:12.242Z,101036.81
2023-10-13T14:41:41.388Z,101018.38
2023-10-13T14:44:10.671Z,101041.41
2023-10-13T14:46:40.879Z,101049.16
2023-10-13T14:49:09.745Z,101049.84
2023-10-13T14:51:41.494Z,101069.88
2023-10-13T14:54:10.048Z,101063.03
2023-10-13T14:56:38.141Z,101067.03
2023-10-13T14:59:06.598Z,101068.06
2023-10-13T15:01:37.024Z,101061.19
2023-10-13T15:04:06.520Z,101071.63
2023-10-13T15:06:34.859Z,101068.34
2023-10-13T15:09:05.416Z,101080.22
2023-10-13T15:11:47.161Z,101075.50
2023-10-13T15:14:17.777Z,101081.19
2023-10-13T15:16:46.072Z,101084.06
2023-10-13T15:19:14.744Z,101084.50
2023-10-13T15:21:43.755Z,101100.81
2023-10-13T15:24:24.681Z,101091.06
2023-10-13T15:26:58.717Z,101090.38
2023-10-13T15:29:28.010Z,101098.34
2023-10-13T15:32:02.674Z,101105.06
2023-10-13T15:34:32.683Z,101117.06
2023-10-13T15:37:06.529Z,101108.22
2023-10-13T15:39:34.704Z,101111.50
2023-10-13T15:42:03.954Z,101113.50
2023-10-13T15:44:36.180Z,101119.06
2023-10-13T15:48:14.151Z,101121.19
2023-10-13T15:49:54.918Z,101119.72
2023-10-13T15:52:23.487Z,101119.03
2023-10-13T15:54:51.833Z,101126.44
2023-10-13T15:57:20.104Z,101107.00
2023-10-13T15:59:48.564Z,101112.84
2023-10-13T16:02:21.224Z,101107.84
2023-10-13T16:04:49.745Z,101115.41
2023-10-13T16:07:19.503Z,101113.97
2023-10-13T16:09:47.548Z,101122.38
2023-10-13T16:12:16.869Z,101123.50
2023-10-13T16:14:45.231Z,101121.06
2023-10-13T16:17:16.101Z,101125.91
2023-10-13T16:19:45.002Z,101123.63
2023-10-13T16:22:12.794Z,101122.19
2023-10-13T16:24:41.083Z,101112.59
2023-10-13T16:27:08.998Z,101114.97
2023-10-13T16:29:37.113Z,101117.81
2023-10-13T16:32:05.682Z,101113.72
2023-10-13T16:34:34.252Z,101118.50
2023-10-13T16:37:06.434Z,101116.97
2023-10-13T16:39:34.758Z,101122.84
2023-10-13T16:42:02.622Z,101130.91
2023-10-13T16:44:31.778Z,101117.41
2023-10-13T16:47:02.573Z,101113.47
2023-10-13T16:49:31.906Z,101114.28
2023-10-13T16:52:02.059Z,101120.22
2023-10-13T16:54:30.522Z,101115.81
2023-10-13T16:57:17.807Z,101121.97
2023-10-13T16:59:48.976Z,101111.19
2023-10-13T17:02:16.977Z,101105.31
2023-10-13T17:04:45.463Z,101111.97
2023-10-13T17:07:15.797Z,101115.66
2023-10-13T17:09:46.888Z,101113.81
2023-10-13T17:12:15.501Z,101115.66
2023-10-13T17:14:45.367Z,101122.41
2023-10-13T17:17:13.061Z,101124.75
2023-10-13T17:19:51.318Z,101129.56
2023-10-13T17:22:21.125Z,101124.38
2023-10-13T17:24:50.093Z,101124.25
2023-10-13T17:27:18.612Z,101131.13
2023-10-13T17:29:47.225Z,101133.56
2023-10-13T17:32:18.328Z,101136.25
2023-10-13T17:34:46.384Z,101133.91
2023-10-13T17:37:14.352Z,101136.00
2023-10-13T17:39:42.590Z,101140.84
2023-10-13T17:42:14.508Z,101142.34
2023-10-13T17:44:43.066Z,101131.44
2023-10-13T17:47:18.407Z,101134.72
2023-10-13T17:49:47.054Z,101138.03
2023-10-13T17:52:15.521Z,101132.00
2023-10-13T17:54:44.006Z,101139.81
2023-10-13T17:57:12.337Z,101140.75
2023-10-13T17:59:40.526Z,101123.19
2023-10-13T18:02:09.124Z,101130.66
2023-10-13T18:04:37.567Z,101137.38
2023-10-13T18:07:06.635Z,101142.38
2023-10-13T18:09:34.995Z,101148.09
2023-10-13T18:12:05.763Z,101142.97
2023-10-13T18:14:34.063Z,101149.44
2023-10-13T18:17:05.325Z,101152.13
2023-10-13T18:19:35.402Z,101148.78
2023-10-13T18:22:05.074Z,101158.28
2023-10-13T18:24:33.296Z,101162.19
2023-10-13T18:27:01.853Z,101159.50
2023-10-13T18:29:30.542Z,101164.03
2023-10-13T18:32:00.604Z,101169.53
2023-10-13T18:34:29.600Z,101172.47
2023-10-13T18:37:01.347Z,101159.66
2023-10-13T18:39:35.531Z,101156.63
2023-10-13T18:42:07.230Z,101167.22
2023-10-13T18:44:35.436Z,101166.13
2023-10-13T18:47:03.419Z,101161.72
2023-10-13T18:49:31.881Z,101157.31
2023-10-13T18:51:59.869Z,101162.81
2023-10-13T18:54:27.975Z,101172.41
2023-10-13T18:56:56.528Z,101170.97
2023-10-13T18:59:24.862Z,101170.94
2023-10-13T19:01:53.962Z,101172.69
2023-10-13T19:04:22.537Z,101166.69
2023-10-13T19:06:50.538Z,101174.13
2023-10-13T19:09:26.947Z,101174.19
2023-10-13T19:11:57.416Z,101173.75
2023-10-13T19:14:25.860Z,101177.94
2023-10-13T19:16:58.923Z,101175.00
2023-10-13T19:19:28.164Z,101174.66
2023-10-13T19:21:59.223Z,101179.94
2023-10-13T19:24:32.938Z,101173.69
2023-10-13T19:27:01.566Z,101168.66
2023-10-13T19:29:30.797Z,101164.44
2023-10-13T19:32:01.711Z,101161.56
2023-10-13T19:34:30.183Z,101147.25
2023-10-13T19:37:04.989Z,101156.59
2023-10-13T19:39:42.273Z,101158.66
2023-10-13T19:42:10.768Z,101157.63
2023-10-13T19:44:39.485Z,101169.81
2023-10-13T19:47:07.912Z,101163.88
2023-10-13T19:49:39.287Z,101174.03
2023-10-13T19:52:08.340Z,101176.59
2023-10-13T19:54:40.374Z,101178.00
2023-10-13T19:57:12.652Z,101180.59
2023-10-13T19:59:42.588Z,101183.28
2023-10-13T20:02:11.221Z,101175.97
2023-10-13T20:04:40.349Z,101184.91
2023-10-13T20:07:09.125Z,101175.84
2023-10-13T20:09:37.259Z,101176.81
2023-10-13T20:12:05.524Z,101184.38
2023-10-13T20:14:33.907Z,101193.31
2023-10-13T20:17:02.257Z,101184.91
2023-10-13T20:19:30.720Z,101190.19
2023-10-13T20:22:05.962Z,101186.16
2023-10-13T20:24:34.186Z,101190.69
2023-10-13T20:27:02.986Z,101204.41
2023-10-13T20:29:31.137Z,101212.84
2023-10-13T20:32:01.302Z,101216.72
2023-10-13T20:34:31.906Z,101211.63
2023-10-13T20:37:00.357Z,101196.50
2023-10-13T20:39:38.084Z,101198.63
2023-10-13T20:42:06.359Z,101206.19
2023-10-13T20:44:41.613Z,101208.97
2023-10-13T20:47:14.630Z,101207.03
2023-10-13T20:49:44.968Z,101207.44
2023-10-13T20:54:57.556Z,101211.53
2023-10-13T20:57:28.216Z,101206.78
2023-10-13T20:59:57.760Z,101205.31
2023-10-13T21:02:25.944Z,101198.34
2023-10-13T21:04:54.240Z,101194.00
2023-10-13T21:07:22.990Z,101199.06
2023-10-13T21:09:51.576Z,101200.06
2023-10-13T21:12:19.443Z,101198.44
2023-10-13T21:14:48.081Z,101195.09
2023-10-13T21:17:16.444Z,101208.25
2023-10-13T21:19:44.511Z,101210.09
2023-10-13T21:22:12.714Z,101210.50
2023-10-13T21:24:40.625Z,101205.84
2023-10-13T21:27:08.948Z,101207.25
2023-10-13T21:29:39.292Z,101212.16
2023-10-13T21:32:09.700Z,101217.00
2023-10-13T21:34:37.944Z,101219.81
2023-10-13T21:37:06.454Z,101221.81
2023-10-13T21:39:47.607Z,101237.53
2023-10-13T21:42:16.848Z,101233.03
2023-10-13T21:45:11.938Z,101233.50
2023-10-13T21:47:40.740Z,101237.47
2023-10-13T21:50:18.150Z,101235.25
2023-10-13T21:52:46.903Z,101239.00
2023-10-13T21:55:19.579Z,101239.88
2023-10-13T21:57:54.655Z,101226.03
2023-10-13T22:00:27.601Z,101215.16
2023-10-13T22:02:57.828Z,101211.38
2023-10-13T22:05:26.082Z,101207.44
2023-10-13T22:07:54.485Z,101208.94
2023-10-13T22:10:22.609Z,101201.09
2023-10-13T22:12:51.052Z,101216.94
2023-10-13T22:15:22.364Z,101204.97
2023-10-13T22:17:51.622Z,101211.34
2023-10-13T22:20:23.328Z,101205.06
2023-10-13T22:22:52.359Z,101201.63
2023-10-13T22:25:21.779Z,101210.44
2023-10-13T22:27:50.657Z,101215.44
2023-10-13T22:30:19.777Z,101215.22
2023-10-13T22:32:51.414Z,101210.03
2023-10-13T22:35:20.139Z,101214.97
2023-10-13T22:37:53.816Z,101220.16
2023-10-13T22:40:24.005Z,101228.44
2023-10-13T22:42:54.012Z,101221.47
2023-10-13T22:45:23.925Z,101230.19
2023-10-13T22:47:56.236Z,101219.41
2023-10-13T22:50:26.444Z,101216.59
2023-10-13T22:52:59.976Z,101209.50
2023-10-13T22:55:29.164Z,101209.38
2023-10-13T22:57:58.349Z,101209.38
2023-10-13T23:00:48.542Z,101204.84
2023-10-13T23:03:19.229Z,101213.25
2023-10-13T23:05:53.060Z,101208.16
2023-10-13T23:08:23.999Z,101207.09
2023-10-13T23:10:57.129Z,101192.97
2023-10-13T23:13:25.895Z,101180.41
2023-10-13T23:15:55.173Z,101190.22
2023-10-13T23:18:25.238Z,101200.66
2023-10-13T23:20:54.044Z,101201.81
2023-10-13T23:23:26.435Z,101201.91
2023-10-13T23:25:55.191Z,101199.13
2023-10-13T23:28:35.831Z,101196.44
2023-10-13T23:31:06.418Z,101196.50
2023-10-13T23:33:34.647Z,101194.78
2023-10-13T23:36:04.498Z,101199.22
2023-10-13T23:38:35.576Z,101187.69
2023-10-13T23:41:06.352Z,101182.50
2023-10-13T23:43:44.485Z,101191.75
2023-10-13T23:46:16.079Z,101192.06
2023-10-13T23:48:47.116Z,101192.38
2023-10-13T23:51:21.794Z,101199.91
2023-10-13T23:53:50.624Z,101199.22
2023-10-13T23:56:30.538Z,101204.13
2023-10-13T23:59:06.692Z,101211.41
